Weather History for KERY - May, 2014

Change the Weather History Date:

Sunday, May 4, 2014

  Actual Average Record
Temperature  
Mean Temperature 37 °F -  
Max Temperature 42 °F 58 °F 85 °F (1980)
Min Temperature 32 °F 33 °F 0 °F (1923)
Degree Days  
Heating Degree Days 28    
Moisture  
Dew Point 33 °F    
Average Humidity 88    
Maximum Humidity 99    
Minimum Humidity 76    
Precipitation  
Precipitation 0.00 in - - ()
Sea Level Pressure  
Sea Level Pressure 29.91 in    
Wind  
Wind Speed 8 mph (WNW)    
Max Wind Speed 15 mph    
Max Gust Speed 21 mph    
Visibility 10 miles    
Events      
Averages and records for this station are not official NWS values.
T = Trace of Precipitation, MM = Missing Value Source: NWS Daily Summary

Daily Weather History Graph

Daily Weather History Graph

Search for Another Location

Airport or City:

Trip Planner

Search our weather history database for the weather conditions in past years. The results will help you decide how hot, cold, wet, or windy it might be!

Date:

Astronomy

May. 04, 2014 Rise Set
Actual Time 6:23 AM EDT 8:54 PM EDT
Civil Twilight 5:49 AM EDT 9:28 PM EDT
Nautical Twilight 5:07 AM EDT 10:11 PM EDT
Astronomical Twilight 4:18 AM EDT 11:00 PM EDT
Moon 10:45 AM EDT (5/4) 1:00 AM EDT (5/4)
Length of Visible Light 15h 38m
Length of Day
14h 31m
Waxing Crescent, 27% of the Moon is Illuminated
May 4
Waxing Crescent
May 6
First Quarter
May 14
Full
May 21
Last Quarter
May 28
New

Hourly Weather History & Observations

Time (EDT) Temp. Windchill Dew Point Humidity Pressure Visibility Wind Dir Wind Speed Gust Speed Precip Events Conditions
12:14 AM 35.2 °F 29.5 °F 32.0 °F 88% 29.75 in 10.0 mi West 6.9 mph - N/A   Clear
12:35 AM 34.7 °F 28.8 °F 32.0 °F 90% 29.75 in 10.0 mi West 6.9 mph - N/A   Clear
12:55 AM 34.7 °F 28.1 °F 32.0 °F 90% 29.75 in 10.0 mi West 8.1 mph - N/A   Clear
1:15 AM 34.0 °F 28.0 °F 32.0 °F 92% 29.75 in 10.0 mi West 6.9 mph - N/A   Clear
1:35 AM 33.8 °F 27.0 °F 32.0 °F 93% 29.76 in 10.0 mi West 8.1 mph - N/A   Clear
1:55 AM 33.8 °F 28.6 °F 32.2 °F 94% 29.76 in 10.0 mi West 5.8 mph - N/A   Clear
2:15 AM 33.8 °F 28.6 °F 32.2 °F 94% 29.75 in 10.0 mi WSW 5.8 mph - N/A   Clear
2:35 AM 33.1 °F 28.7 °F 32.2 °F 96% 29.75 in 10.0 mi WSW 4.6 mph - N/A   Clear
2:54 AM 33.3 °F 28.9 °F 32.2 °F 96% 29.76 in 10.0 mi West 4.6 mph - N/A   Clear
3:15 AM 32.5 °F 28.1 °F 32.0 °F 98% 29.75 in 10.0 mi West 4.6 mph - N/A   Clear
3:35 AM 32.9 °F 27.5 °F 32.0 °F 96% 29.75 in 10.0 mi West 5.8 mph - N/A   Clear
3:54 AM 32.7 °F 27.3 °F 32.0 °F 97% 29.76 in 10.0 mi West 5.8 mph - N/A   Clear
4:15 AM 32.4 °F 29.1 °F 32.0 °F 99% 29.76 in 10.0 mi West 3.5 mph - N/A   Scattered Clouds
4:35 AM 33.1 °F 26.1 °F 32.0 °F 96% 29.76 in 10.0 mi WSW 8.1 mph - N/A   Mostly Cloudy
4:55 AM 32.9 °F 25.9 °F 31.8 °F 96% 29.77 in 10.0 mi West 8.1 mph - N/A   Overcast
5:15 AM 32.5 °F 26.2 °F 31.1 °F 94% 29.78 in 10.0 mi WSW 6.9 mph - N/A   Mostly Cloudy
5:35 AM 32.5 °F 25.5 °F 30.9 °F 94% 29.78 in 10.0 mi West 8.1 mph - N/A   Scattered Clouds
5:55 AM 32.5 °F 25.5 °F 30.7 °F 93% 29.79 in 10.0 mi West 8.1 mph - N/A   Clear
6:15 AM 32.4 °F 25.3 °F 30.6 °F 93% 29.80 in 10.0 mi West 8.1 mph - N/A   Clear
6:35 AM 32.5 °F 24.8 °F 30.2 °F 91% 29.81 in 10.0 mi West 9.2 mph - N/A   Scattered Clouds
6:55 AM 32.9 °F 26.7 °F 30.0 °F 89% 29.81 in 10.0 mi West 6.9 mph - N/A   Scattered Clouds
7:15 AM 33.1 °F 26.1 °F 30.2 °F 89% 29.82 in 10.0 mi West 8.1 mph - N/A   Scattered Clouds
7:35 AM 33.3 °F 25.7 °F 30.0 °F 88% 29.82 in 10.0 mi West 9.2 mph - N/A   Mostly Cloudy
7:55 AM 34.2 °F 26.8 °F 30.2 °F 85% 29.83 in 10.0 mi West 9.2 mph - N/A   Scattered Clouds
8:15 AM 34.7 °F 28.1 °F 29.8 °F 82% 29.84 in 10.0 mi West 8.1 mph 17.3 mph N/A   Clear
8:35 AM 35.1 °F 28.6 °F 30.2 °F 82% 29.84 in 10.0 mi West 8.1 mph - N/A   Clear
8:55 AM 37.6 °F 31.0 °F 30.9 °F 77% 29.85 in 10.0 mi WNW 9.2 mph - N/A   Clear
9:14 AM 38.5 °F 32.1 °F 31.6 °F 76% 29.85 in 10.0 mi NW 9.2 mph 17.3 mph N/A   Scattered Clouds
9:35 AM 38.5 °F 30.7 °F 31.8 °F 77% 29.86 in 10.0 mi NW 12.7 mph 20.7 mph N/A   Overcast
9:55 AM 38.5 °F 31.6 °F 32.0 °F 78% 29.86 in 10.0 mi WNW 10.4 mph 18.4 mph N/A   Overcast
10:14 AM 38.3 °F 32.5 °F 32.4 °F 79% 29.87 in 10.0 mi NW 8.1 mph - N/A   Overcast
10:35 AM 38.3 °F 29.7 °F 32.9 °F 81% 29.88 in 10.0 mi WNW 15.0 mph - N/A   Overcast
10:55 AM 38.5 °F 30.7 °F 33.1 °F 81% 29.89 in 10.0 mi WNW 12.7 mph - N/A   Overcast
11:15 AM 38.5 °F 30.7 °F 33.8 °F 83% 29.90 in 10.0 mi WNW 12.7 mph 18.4 mph N/A   Overcast
11:35 AM 38.3 °F 31.9 °F 34.0 °F 84% 29.91 in 10.0 mi NW 9.2 mph 16.1 mph N/A   Overcast
11:54 AM 37.8 °F 30.7 °F 34.9 °F 89% 29.92 in 7.0 mi WNW 10.4 mph - N/A   Overcast
12:15 PM 39.2 °F 32.5 °F 35.6 °F 87% 29.93 in 5.0 mi West 10.4 mph - N/A   Overcast
12:35 PM 39.4 °F 32.7 °F 35.4 °F 86% 29.93 in 7.0 mi West 10.4 mph 16.1 mph N/A   Overcast
12:54 PM 40.1 °F 33.2 °F 35.2 °F 83% 29.94 in 10.0 mi WNW 11.5 mph - N/A   Overcast
1:15 PM 40.3 °F 33.0 °F 35.4 °F 83% 29.94 in 10.0 mi WNW 12.7 mph 16.1 mph N/A   Overcast
1:34 PM 41.4 °F 34.7 °F 36.3 °F 82% 29.95 in 10.0 mi NW 11.5 mph - N/A   Overcast
1:55 PM 41.4 °F 34.7 °F 35.1 °F 78% 29.95 in 10.0 mi WNW 11.5 mph - N/A   Overcast
2:15 PM 41.2 °F 34.1 °F 35.2 °F 79% 29.96 in 10.0 mi WNW 12.7 mph - N/A   Overcast
2:35 PM 41.2 °F 34.5 °F 35.2 °F 79% 29.96 in 10.0 mi West 11.5 mph - N/A   Overcast
2:55 PM 41.7 °F 34.8 °F 36.1 °F 81% 29.97 in 10.0 mi West 12.7 mph - N/A   Overcast
3:15 PM 41.5 °F 35.4 °F 35.8 °F 80% 29.98 in 10.0 mi West 10.4 mph - N/A   Overcast
3:35 PM 42.1 °F 36.1 °F 36.3 °F 80% 29.98 in 10.0 mi West 10.4 mph - N/A   Overcast
3:55 PM 41.2 °F 34.1 °F 35.6 °F 81% 29.99 in 10.0 mi West 12.7 mph 16.1 mph N/A   Overcast
4:14 PM 40.6 °F 34.3 °F 36.0 °F 83% 30.00 in 10.0 mi West 10.4 mph 16.1 mph N/A   Overcast
4:35 PM 40.1 °F 33.6 °F 35.6 °F 84% 30.00 in 10.0 mi West 10.4 mph - N/A   Overcast
4:55 PM 39.7 °F 33.2 °F 35.1 °F 83% 30.01 in 10.0 mi WNW 10.4 mph 17.3 mph N/A   Overcast
5:14 PM 39.2 °F 33.6 °F 35.1 °F 85% 30.01 in 10.0 mi West 8.1 mph 16.1 mph N/A   Overcast
5:35 PM 38.5 °F 31.6 °F 34.7 °F 86% 30.03 in 10.0 mi West 10.4 mph - N/A   Overcast
5:55 PM 38.3 °F 32.5 °F 34.9 °F 87% 30.03 in 10.0 mi West 8.1 mph - N/A   Overcast
6:15 PM 38.5 °F 32.7 °F 34.5 °F 86% 30.04 in 10.0 mi WNW 8.1 mph - N/A   Overcast
6:35 PM 39.2 °F 32.5 °F 34.3 °F 83% 30.04 in 10.0 mi WNW 10.4 mph - N/A   Overcast
6:54 PM 39.4 °F 33.2 °F 34.0 °F 81% 30.04 in 10.0 mi WNW 9.2 mph - N/A   Overcast
7:15 PM 39.2 °F 35.0 °F 34.5 °F 83% 30.04 in 10.0 mi West 5.8 mph - N/A   Overcast
7:35 PM 38.3 °F 32.5 °F 34.5 °F 86% 30.04 in 10.0 mi WNW 8.1 mph - N/A   Overcast
7:54 PM 37.6 °F 32.3 °F 34.2 °F 87% 30.04 in 10.0 mi West 6.9 mph - N/A   Overcast
8:15 PM 37.0 °F 31.0 °F 34.3 °F 90% 30.04 in 10.0 mi WNW 8.1 mph - N/A   Overcast
8:35 PM 36.1 °F 32.3 °F 34.0 °F 92% 30.05 in 10.0 mi WNW 4.6 mph - N/A   Overcast
8:55 PM 35.6 °F 30.7 °F 33.8 °F 93% 30.05 in 10.0 mi NW 5.8 mph - N/A   Overcast
9:15 PM 35.1 °F 31.0 °F 33.6 °F 94% 30.06 in 10.0 mi NW 4.6 mph - N/A   Overcast
9:34 PM 34.7 °F 30.6 °F 33.3 °F 94% 30.07 in 10.0 mi NNW 4.6 mph - N/A   Overcast
9:54 PM 34.3 °F 30.2 °F 33.3 °F 96% 30.08 in 10.0 mi NW 4.6 mph - N/A   Overcast
10:14 PM 34.2 °F 31.2 °F 33.3 °F 97% 30.08 in 10.0 mi NNW 3.5 mph - N/A   Overcast
10:35 PM 34.0 °F 29.8 °F 33.3 °F 97% 30.08 in 10.0 mi NNW 4.6 mph - N/A   Overcast
10:55 PM 33.4 °F - 32.9 °F 98% 30.08 in 10.0 mi Calm Calm - N/A   Overcast
11:15 PM 33.4 °F 30.4 °F 32.9 °F 98% 30.09 in 10.0 mi NNW 3.5 mph - N/A   Overcast
11:35 PM 32.9 °F - 32.4 °F 98% 30.08 in 10.0 mi Calm Calm - N/A   Mostly Cloudy
11:55 PM 32.5 °F - 32.0 °F 98% 30.08 in 10.0 mi Calm Calm - N/A   Scattered Clouds